sensor_id;sensor_type;location;lat;lon;timestamp;pressure;altitude;pressure_sealevel;temperature;humidity
11172;BME280;5642;50.830;12.082;2023-05-11T00:01:12;99134.53;;;17.05;46.42
11172;BME280;5642;50.830;12.082;2023-05-11T00:03:45;99149.44;;;17.06;46.81
11172;BME280;5642;50.830;12.082;2023-05-11T00:06:20;99153.03;;;17.05;46.52
11172;BME280;5642;50.830;12.082;2023-05-11T00:08:47;99152.06;;;17.06;46.57
11172;BME280;5642;50.830;12.082;2023-05-11T00:11:15;99139.81;;;17.05;46.63
11172;BME280;5642;50.830;12.082;2023-05-11T00:13:44;99135.84;;;16.98;46.67
11172;BME280;5642;50.830;12.082;2023-05-11T00:16:11;99147.94;;;17.02;46.62
11172;BME280;5642;50.830;12.082;2023-05-11T00:18:40;99147.84;;;17.03;46.73
11172;BME280;5642;50.830;12.082;2023-05-11T00:21:15;99149.06;;;16.98;46.68
11172;BME280;5642;50.830;12.082;2023-05-11T00:23:48;99150.56;;;17.02;46.61
11172;BME280;5642;50.830;12.082;2023-05-11T00:26:15;99145.47;;;16.99;46.73
11172;BME280;5642;50.830;12.082;2023-05-11T00:28:44;99136.09;;;16.93;46.72
11172;BME280;5642;50.830;12.082;2023-05-11T00:31:14;99126.00;;;16.86;46.83
11172;BME280;5642;50.830;12.082;2023-05-11T00:33:41;99140.75;;;16.90;46.86
11172;BME280;5642;50.830;12.082;2023-05-11T00:36:07;99142.47;;;16.91;46.85
11172;BME280;5642;50.830;12.082;2023-05-11T00:38:41;99133.84;;;16.87;47.13
11172;BME280;5642;50.830;12.082;2023-05-11T00:41:11;99141.59;;;16.90;47.02
11172;BME280;5642;50.830;12.082;2023-05-11T00:43:37;99144.03;;;16.93;46.86
11172;BME280;5642;50.830;12.082;2023-05-11T00:46:08;99139.81;;;16.91;46.89
11172;BME280;5642;50.830;12.082;2023-05-11T00:48:34;99144.91;;;16.94;47.09
11172;BME280;5642;50.830;12.082;2023-05-11T00:51:04;99141.31;;;16.95;47.01
11172;BME280;5642;50.830;12.082;2023-05-11T00:53:33;99139.59;;;16.94;47.14
11172;BME280;5642;50.830;12.082;2023-05-11T00:56:02;99120.91;;;16.82;47.07
11172;BME280;5642;50.830;12.082;2023-05-11T00:58:30;99130.19;;;16.90;47.25
11172;BME280;5642;50.830;12.082;2023-05-11T01:00:57;99119.84;;;16.85;47.12
11172;BME280;5642;50.830;12.082;2023-05-11T01:03:24;99121.19;;;16.92;47.16
11172;BME280;5642;50.830;12.082;2023-05-11T01:09:01;99127.91;;;16.98;47.15
11172;BME280;5642;50.830;12.082;2023-05-11T01:11:49;99134.31;;;16.94;47.40
11172;BME280;5642;50.830;12.082;2023-05-11T01:15:04;99121.84;;;16.96;47.17
11172;BME280;5642;50.830;12.082;2023-05-11T01:17:20;99124.50;;;16.96;47.39
11172;BME280;5642;50.830;12.082;2023-05-11T01:19:59;99120.16;;;16.95;47.17
11172;BME280;5642;50.830;12.082;2023-05-11T01:31:54;99132.91;;;16.88;47.60
11172;BME280;5642;50.830;12.082;2023-05-11T01:34:34;99129.31;;;16.89;47.43
11172;BME280;5642;50.830;12.082;2023-05-11T01:37:09;99136.09;;;16.93;47.42
11172;BME280;5642;50.830;12.082;2023-05-11T01:40:02;99119.13;;;16.83;47.53
11172;BME280;5642;50.830;12.082;2023-05-11T01:42:47;99130.91;;;16.92;47.51
11172;BME280;5642;50.830;12.082;2023-05-11T01:45:40;99137.16;;;16.91;47.48
11172;BME280;5642;50.830;12.082;2023-05-11T01:48:30;99102.09;;;16.73;47.38
11172;BME280;5642;50.830;12.082;2023-05-11T01:51:18;99133.75;;;16.89;47.43
11172;BME280;5642;50.830;12.082;2023-05-11T01:54:06;99128.66;;;16.86;47.53
11172;BME280;5642;50.830;12.082;2023-05-11T01:56:37;99130.81;;;16.93;47.42
11172;BME280;5642;50.830;12.082;2023-05-11T01:59:11;99114.84;;;16.80;47.70
11172;BME280;5642;50.830;12.082;2023-05-11T02:01:40;99137.72;;;16.96;47.59
11172;BME280;5642;50.830;12.082;2023-05-11T02:04:08;99135.94;;;16.96;47.61
11172;BME280;5642;50.830;12.082;2023-05-11T02:06:37;99137.63;;;16.97;47.63
11172;BME280;5642;50.830;12.082;2023-05-11T02:09:06;99119.38;;;16.93;47.63
11172;BME280;5642;50.830;12.082;2023-05-11T02:11:34;99122.13;;;16.91;47.60
11172;BME280;5642;50.830;12.082;2023-05-11T02:14:04;99131.38;;;16.98;47.58
11172;BME280;5642;50.830;12.082;2023-05-11T02:16:33;99102.28;;;16.84;47.51
11172;BME280;5642;50.830;12.082;2023-05-11T02:19:01;99115.88;;;16.92;47.76
11172;BME280;5642;50.830;12.082;2023-05-11T02:21:30;99130.56;;;16.98;47.75
11172;BME280;5642;50.830;12.082;2023-05-11T02:23:58;99128.63;;;17.00;47.71
11172;BME280;5642;50.830;12.082;2023-05-11T02:26:26;99124.19;;;17.00;47.89
11172;BME280;5642;50.830;12.082;2023-05-11T02:28:52;99111.91;;;16.99;47.70
11172;BME280;5642;50.830;12.082;2023-05-11T02:31:28;99112.78;;;17.00;47.78
11172;BME280;5642;50.830;12.082;2023-05-11T02:34:18;99113.63;;;17.00;47.58
11172;BME280;5642;50.830;12.082;2023-05-11T02:36:48;99115.31;;;17.01;47.86
11172;BME280;5642;50.830;12.082;2023-05-11T02:39:18;99123.81;;;17.06;47.88
11172;BME280;5642;50.830;12.082;2023-05-11T03:40:13;99097.47;;;17.05;48.18
11172;BME280;5642;50.830;12.082;2023-05-11T03:42:42;99103.88;;;17.15;48.25
11172;BME280;5642;50.830;12.082;2023-05-11T03:45:12;99107.91;;;17.20;48.17
11172;BME280;5642;50.830;12.082;2023-05-11T03:47:40;99072.69;;;17.06;48.45
11172;BME280;5642;50.830;12.082;2023-05-11T03:50:07;99100.84;;;17.21;48.13
11172;BME280;5642;50.830;12.082;2023-05-11T03:52:35;99111.03;;;17.27;48.21
11172;BME280;5642;50.830;12.082;2023-05-11T03:55:04;99093.84;;;17.20;48.17
11172;BME280;5642;50.830;12.082;2023-05-11T03:57:32;99087.59;;;17.21;48.35
11172;BME280;5642;50.830;12.082;2023-05-11T03:59:59;99102.13;;;17.28;48.26
11172;BME280;5642;50.830;12.082;2023-05-11T04:02:26;99095.34;;;17.24;48.19
11172;BME280;5642;50.830;12.082;2023-05-11T04:04:52;99099.72;;;17.25;48.28
11172;BME280;5642;50.830;12.082;2023-05-11T04:07:20;99101.59;;;17.23;48.38
11172;BME280;5642;50.830;12.082;2023-05-11T04:09:46;99097.34;;;17.20;48.30
11172;BME280;5642;50.830;12.082;2023-05-11T04:12:14;99090.63;;;17.15;48.24
11172;BME280;5642;50.830;12.082;2023-05-11T04:14:42;99091.56;;;17.14;48.34
11172;BME280;5642;50.830;12.082;2023-05-11T04:17:09;99085.34;;;17.15;48.39
11172;BME280;5642;50.830;12.082;2023-05-11T04:19:39;99091.31;;;17.18;48.43
11172;BME280;5642;50.830;12.082;2023-05-11T04:22:06;99098.19;;;17.21;48.34
11172;BME280;5642;50.830;12.082;2023-05-11T04:24:33;99097.34;;;17.20;48.50
11172;BME280;5642;50.830;12.082;2023-05-11T04:26:59;99098.75;;;17.26;48.54
11172;BME280;5642;50.830;12.082;2023-05-11T04:29:26;99096.13;;;17.26;48.39
11172;BME280;5642;50.830;12.082;2023-05-11T04:31:52;99091.56;;;17.28;48.34
11172;BME280;5642;50.830;12.082;2023-05-11T04:34:19;99091.78;;;17.25;48.51
11172;BME280;5642;50.830;12.082;2023-05-11T04:36:48;99082.66;;;17.29;48.53
11172;BME280;5642;50.830;12.082;2023-05-11T04:39:17;99098.16;;;17.35;48.58
11172;BME280;5642;50.830;12.082;2023-05-11T04:41:44;99077.47;;;17.28;48.42
11172;BME280;5642;50.830;12.082;2023-05-11T04:44:13;99091.47;;;17.30;48.33
11172;BME280;5642;50.830;12.082;2023-05-11T04:46:43;99077.94;;;17.20;48.31
11172;BME280;5642;50.830;12.082;2023-05-11T04:49:11;99094.09;;;17.30;48.56
11172;BME280;5642;50.830;12.082;2023-05-11T04:51:39;99104.22;;;17.37;48.53
11172;BME280;5642;50.830;12.082;2023-05-11T04:54:06;99104.31;;;17.36;48.47
11172;BME280;5642;50.830;12.082;2023-05-11T04:56:33;99102.50;;;17.36;48.58
11172;BME280;5642;50.830;12.082;2023-05-11T04:59:07;99106.19;;;17.34;48.56
11172;BME280;5642;50.830;12.082;2023-05-11T05:01:34;99092.41;;;17.29;48.68
11172;BME280;5642;50.830;12.082;2023-05-11T05:04:04;99063.63;;;17.10;48.64
11172;BME280;5642;50.830;12.082;2023-05-11T05:06:31;99083.06;;;17.23;48.70
11172;BME280;5642;50.830;12.082;2023-05-11T05:09:00;99072.03;;;17.16;48.64
11172;BME280;5642;50.830;12.082;2023-05-11T05:11:28;99101.75;;;17.34;48.67
11172;BME280;5642;50.830;12.082;2023-05-11T05:13:55;99098.81;;;17.39;48.72
11172;BME280;5642;50.830;12.082;2023-05-11T05:16:21;99101.25;;;17.42;48.95
11172;BME280;5642;50.830;12.082;2023-05-11T05:18:47;99099.38;;;17.44;48.70
11172;BME280;5642;50.830;12.082;2023-05-11T05:21:15;99105.13;;;17.50;48.63
11172;BME280;5642;50.830;12.082;2023-05-11T05:23:43;99109.38;;;17.53;48.65
11172;BME280;5642;50.830;12.082;2023-05-11T05:26:11;99112.75;;;17.55;48.75
11172;BME280;5642;50.830;12.082;2023-05-11T05:28:38;99086.03;;;17.45;48.63
11172;BME280;5642;50.830;12.082;2023-05-11T05:31:08;99117.00;;;17.57;48.69
11172;BME280;5642;50.830;12.082;2023-05-11T05:33:36;99110.78;;;17.58;48.73
11172;BME280;5642;50.830;12.082;2023-05-11T05:36:05;99112.66;;;17.56;48.88
11172;BME280;5642;50.830;12.082;2023-05-11T05:38:33;99113.41;;;17.58;48.86
11172;BME280;5642;50.830;12.082;2023-05-11T05:41:04;99118.56;;;17.62;48.89
11172;BME280;5642;50.830;12.082;2023-05-11T05:43:32;99124.69;;;17.62;48.86
11172;BME280;5642;50.830;12.082;2023-05-11T05:46:00;99105.47;;;17.58;48.81
11172;BME280;5642;50.830;12.082;2023-05-11T05:48:28;99120.41;;;17.74;48.82
11172;BME280;5642;50.830;12.082;2023-05-11T05:50:55;99115.97;;;17.74;48.69
11172;BME280;5642;50.830;12.082;2023-05-11T05:53:24;99123.41;;;17.82;48.89
11172;BME280;5642;50.830;12.082;2023-05-11T05:55:52;99127.44;;;17.87;48.72
11172;BME280;5642;50.830;12.082;2023-05-11T05:58:18;99119.81;;;17.83;48.63
11172;BME280;5642;50.830;12.082;2023-05-11T06:00:44;99123.19;;;17.85;48.65
11172;BME280;5642;50.830;12.082;2023-05-11T06:03:13;99131.72;;;17.90;48.77
11172;BME280;5642;50.830;12.082;2023-05-11T06:05:39;99129.78;;;17.92;48.76
11172;BME280;5642;50.830;12.082;2023-05-11T06:08:06;99134.81;;;17.96;48.87
11172;BME280;5642;50.830;12.082;2023-05-11T06:10:35;99119.94;;;17.94;48.88
11172;BME280;5642;50.830;12.082;2023-05-11T06:13:03;99145.53;;;18.08;48.75
11172;BME280;5642;50.830;12.082;2023-05-11T06:15:30;99134.41;;;18.03;48.65
11172;BME280;5642;50.830;12.082;2023-05-11T06:17:56;99131.66;;;18.04;48.77
11172;BME280;5642;50.830;12.082;2023-05-11T06:20:23;99134.84;;;18.09;48.87
11172;BME280;5642;50.830;12.082;2023-05-11T06:22:52;99132.53;;;18.17;48.80
11172;BME280;5642;50.830;12.082;2023-05-11T06:25:20;99134.84;;;18.22;48.80
11172;BME280;5642;50.830;12.082;2023-05-11T06:27:46;99134.03;;;18.34;48.74
11172;BME280;5642;50.830;12.082;2023-05-11T06:30:14;99112.19;;;18.30;48.66
11172;BME280;5642;50.830;12.082;2023-05-11T06:32:40;99132.88;;;18.51;48.70
11172;BME280;5642;50.830;12.082;2023-05-11T06:35:09;99124.84;;;18.52;48.67
11172;BME280;5642;50.830;12.082;2023-05-11T06:37:35;99121.38;;;18.64;48.65
11172;BME280;5642;50.830;12.082;2023-05-11T06:40:02;99127.84;;;18.73;48.56
11172;BME280;5642;50.830;12.082;2023-05-11T07:19:26;99102.41;;;21.29;47.16
11172;BME280;5642;50.830;12.082;2023-05-11T07:21:53;99111.34;;;21.51;47.09
11172;BME280;5642;50.830;12.082;2023-05-11T07:24:20;99123.28;;;21.67;46.90
11172;BME280;5642;50.830;12.082;2023-05-11T07:26:47;99106.19;;;21.81;47.06
11172;BME280;5642;50.830;12.082;2023-05-11T07:29:17;99084.78;;;22.24;46.62
11172;BME280;5642;50.830;12.082;2023-05-11T07:31:44;99115.91;;;23.37;45.82
11172;BME280;5642;50.830;12.082;2023-05-11T07:34:10;99114.22;;;23.86;45.80
11172;BME280;5642;50.830;12.082;2023-05-11T07:36:39;99119.69;;;24.03;45.26
11172;BME280;5642;50.830;12.082;2023-05-11T07:39:06;99122.38;;;23.94;45.55
11172;BME280;5642;50.830;12.082;2023-05-11T07:41:34;99115.72;;;23.69;45.96
11172;BME280;5642;50.830;12.082;2023-05-11T07:44:01;99122.53;;;23.42;46.11
11172;BME280;5642;50.830;12.082;2023-05-11T07:46:29;99131.78;;;23.29;46.09
11172;BME280;5642;50.830;12.082;2023-05-11T07:48:58;99123.28;;;23.24;46.09
11172;BME280;5642;50.830;12.082;2023-05-11T07:51:25;99122.66;;;23.41;45.98
11172;BME280;5642;50.830;12.082;2023-05-11T07:53:52;99114.78;;;23.79;45.61
11172;BME280;5642;50.830;12.082;2023-05-11T07:56:18;99128.06;;;24.19;45.38
11172;BME280;5642;50.830;12.082;2023-05-11T07:58:45;99132.41;;;24.49;45.35
11172;BME280;5642;50.830;12.082;2023-05-11T08:01:11;99122.91;;;24.74;44.98
11172;BME280;5642;50.830;12.082;2023-05-11T08:03:42;99119.06;;;24.96;45.17
11172;BME280;5642;50.830;12.082;2023-05-11T08:06:09;99112.53;;;25.08;44.69
11172;BME280;5642;50.830;12.082;2023-05-11T08:08:38;99130.22;;;25.28;44.83
11172;BME280;5642;50.830;12.082;2023-05-11T08:11:05;99119.81;;;25.16;44.95
11172;BME280;5642;50.830;12.082;2023-05-11T08:13:32;99132.28;;;25.07;44.95
11172;BME280;5642;50.830;12.082;2023-05-11T08:15:59;99130.19;;;25.01;44.77
11172;BME280;5642;50.830;12.082;2023-05-11T09:42:35;99105.59;;;28.92;41.97
11172;BME280;5642;50.830;12.082;2023-05-11T09:45:01;99128.31;;;28.73;41.62
11172;BME280;5642;50.830;12.082;2023-05-11T09:47:38;99126.69;;;28.48;41.92
11172;BME280;5642;50.830;12.082;2023-05-11T09:50:17;99119.09;;;28.19;41.99
11172;BME280;5642;50.830;12.082;2023-05-11T09:52:49;99107.25;;;27.95;42.11
11172;BME280;5642;50.830;12.082;2023-05-11T09:55:16;99127.56;;;27.82;41.89
11172;BME280;5642;50.830;12.082;2023-05-11T09:57:52;99116.84;;;27.48;41.94
11172;BME280;5642;50.830;12.082;2023-05-11T10:00:47;99129.47;;;27.47;41.89
11172;BME280;5642;50.830;12.082;2023-05-11T10:03:18;99136.34;;;27.42;41.64
11172;BME280;5642;50.830;12.082;2023-05-11T10:05:59;99127.25;;;27.43;41.87
11172;BME280;5642;50.830;12.082;2023-05-11T10:08:30;99133.75;;;27.66;41.85
11172;BME280;5642;50.830;12.082;2023-05-11T10:11:01;99136.81;;;27.79;41.57
11172;BME280;5642;50.830;12.082;2023-05-11T10:13:28;99122.22;;;27.90;41.29
11172;BME280;5642;50.830;12.082;2023-05-11T10:15:57;99125.75;;;28.06;41.25
11172;BME280;5642;50.830;12.082;2023-05-11T10:18:24;99123.78;;;28.17;41.26
11172;BME280;5642;50.830;12.082;2023-05-11T10:20:52;99104.41;;;28.13;41.25
11172;BME280;5642;50.830;12.082;2023-05-11T10:27:21;99123.28;;;28.21;41.48
11172;BME280;5642;50.830;12.082;2023-05-11T10:29:49;99127.50;;;28.32;40.89
11172;BME280;5642;50.830;12.082;2023-05-11T10:32:19;99118.75;;;28.46;40.97
11172;BME280;5642;50.830;12.082;2023-05-11T10:34:46;99111.31;;;28.64;40.87
11172;BME280;5642;50.830;12.082;2023-05-11T10:37:14;99105.75;;;28.90;40.81
11172;BME280;5642;50.830;12.082;2023-05-11T10:39:40;99102.97;;;29.14;40.41
11172;BME280;5642;50.830;12.082;2023-05-11T12:43:04;99087.66;;;25.16;39.12
11172;BME280;5642;50.830;12.082;2023-05-11T12:45:31;99078.59;;;24.89;39.07
11172;BME280;5642;50.830;12.082;2023-05-11T12:47:57;99093.16;;;24.68;38.97
11172;BME280;5642;50.830;12.082;2023-05-11T12:50:24;99083.22;;;24.50;39.24
11172;BME280;5642;50.830;12.082;2023-05-11T12:52:50;99090.00;;;24.35;38.79
11172;BME280;5642;50.830;12.082;2023-05-11T12:55:27;99069.31;;;24.08;38.74
11172;BME280;5642;50.830;12.082;2023-05-11T12:58:11;99079.56;;;24.13;38.83
11172;BME280;5642;50.830;12.082;2023-05-11T13:00:55;99077.47;;;24.26;38.61
11172;BME280;5642;50.830;12.082;2023-05-11T13:03:26;99091.13;;;24.42;38.46
11172;BME280;5642;50.830;12.082;2023-05-11T13:06:12;99084.63;;;24.54;38.63
11172;BME280;5642;50.830;12.082;2023-05-11T13:08:44;99083.44;;;24.67;38.34
11172;BME280;5642;50.830;12.082;2023-05-11T13:11:17;99082.00;;;24.82;38.42
11172;BME280;5642;50.830;12.082;2023-05-11T13:13:44;99075.78;;;24.91;38.01
11172;BME280;5642;50.830;12.082;2023-05-11T13:16:25;99080.34;;;25.08;38.22
11172;BME280;5642;50.830;12.082;2023-05-11T13:18:59;99076.25;;;25.14;38.04
11172;BME280;5642;50.830;12.082;2023-05-11T13:21:26;99080.03;;;25.21;38.08
11172;BME280;5642;50.830;12.082;2023-05-11T13:23:55;99070.69;;;25.25;38.17
11172;BME280;5642;50.830;12.082;2023-05-11T13:26:27;99057.75;;;25.20;37.80
11172;BME280;5642;50.830;12.082;2023-05-11T13:28:54;99080.06;;;25.39;37.64
11172;BME280;5642;50.830;12.082;2023-05-11T13:31:21;99072.13;;;25.47;38.01
11172;BME280;5642;50.830;12.082;2023-05-11T13:33:50;99063.19;;;25.56;37.93
11172;BME280;5642;50.830;12.082;2023-05-11T13:36:18;99064.81;;;25.66;37.74
11172;BME280;5642;50.830;12.082;2023-05-11T13:38:45;99064.53;;;25.69;37.46
11172;BME280;5642;50.830;12.082;2023-05-11T13:41:11;99052.81;;;25.70;37.51
11172;BME280;5642;50.830;12.082;2023-05-11T13:43:38;99062.00;;;25.86;37.78
11172;BME280;5642;50.830;12.082;2023-05-11T13:46:06;99055.63;;;25.87;37.45
11172;BME280;5642;50.830;12.082;2023-05-11T13:48:32;99034.53;;;25.74;37.36
11172;BME280;5642;50.830;12.082;2023-05-11T13:50:58;99046.97;;;25.75;37.35
11172;BME280;5642;50.830;12.082;2023-05-11T13:53:25;99061.38;;;25.74;37.48
11172;BME280;5642;50.830;12.082;2023-05-11T13:55:51;99060.06;;;25.60;37.52
11172;BME280;5642;50.830;12.082;2023-05-11T13:58:17;99045.34;;;25.37;37.76
11172;BME280;5642;50.830;12.082;2023-05-11T14:00:43;99057.53;;;25.31;37.92
11172;BME280;5642;50.830;12.082;2023-05-11T14:03:10;99062.41;;;25.18;37.78
11172;BME280;5642;50.830;12.082;2023-05-11T14:05:36;99064.59;;;25.05;38.14
11172;BME280;5642;50.830;12.082;2023-05-11T14:08:03;99049.56;;;24.85;38.06
11172;BME280;5642;50.830;12.082;2023-05-11T14:10:29;99065.91;;;24.82;37.80
11172;BME280;5642;50.830;12.082;2023-05-11T14:12:56;99059.19;;;24.78;38.15
11172;BME280;5642;50.830;12.082;2023-05-11T14:15:22;99057.75;;;24.74;37.91
11172;BME280;5642;50.830;12.082;2023-05-11T14:17:49;99036.22;;;24.66;38.15
11172;BME280;5642;50.830;12.082;2023-05-11T14:20:15;99027.78;;;24.61;37.81
11172;BME280;5642;50.830;12.082;2023-05-11T14:22:41;99063.81;;;24.76;37.68
11172;BME280;5642;50.830;12.082;2023-05-11T14:25:08;99065.53;;;24.77;38.10
11172;BME280;5642;50.830;12.082;2023-05-11T14:27:34;99062.72;;;24.78;37.85
11172;BME280;5642;50.830;12.082;2023-05-11T14:30:00;99059.28;;;24.86;37.95
11172;BME280;5642;50.830;12.082;2023-05-11T14:32:27;99060.44;;;24.93;37.67
11172;BME280;5642;50.830;12.082;2023-05-11T14:34:53;99062.06;;;25.04;37.66
11172;BME280;5642;50.830;12.082;2023-05-11T14:37:19;99057.34;;;25.15;37.83
11172;BME280;5642;50.830;12.082;2023-05-11T14:39:45;99060.34;;;25.30;37.82
11172;BME280;5642;50.830;12.082;2023-05-11T14:42:11;99043.69;;;25.36;37.43
11172;BME280;5642;50.830;12.082;2023-05-11T15:46:01;99143.94;;;22.08;39.75
11172;BME280;5642;50.830;12.082;2023-05-11T15:48:28;99141.50;;;22.05;39.33
11172;BME280;5642;50.830;12.082;2023-05-11T15:50:54;99148.78;;;22.03;39.55
11172;BME280;5642;50.830;12.082;2023-05-11T15:53:21;99146.50;;;21.99;39.54
11172;BME280;5642;50.830;12.082;2023-05-11T15:55:47;99153.03;;;21.95;39.66
11172;BME280;5642;50.830;12.082;2023-05-11T15:58:17;99151.25;;;21.84;39.57
11172;BME280;5642;50.830;12.082;2023-05-11T16:00:43;99148.34;;;21.76;39.71
11172;BME280;5642;50.830;12.082;2023-05-11T16:03:10;99150.94;;;21.66;39.63
11172;BME280;5642;50.830;12.082;2023-05-11T16:05:38;99154.91;;;21.61;39.71
11172;BME280;5642;50.830;12.082;2023-05-11T16:08:05;99156.53;;;21.52;39.56
11172;BME280;5642;50.830;12.082;2023-05-11T16:10:31;99142.63;;;21.37;39.85
11172;BME280;5642;50.830;12.082;2023-05-11T16:12:59;99148.41;;;21.42;39.95
11172;BME280;5642;50.830;12.082;2023-05-11T16:15:26;99157.25;;;21.43;39.77
11172;BME280;5642;50.830;12.082;2023-05-11T16:17:54;99156.41;;;21.42;39.71
11172;BME280;5642;50.830;12.082;2023-05-11T16:20:20;99151.44;;;21.49;39.70
11172;BME280;5642;50.830;12.082;2023-05-11T16:22:47;99161.47;;;21.57;39.60
11172;BME280;5642;50.830;12.082;2023-05-11T16:25:13;99164.72;;;21.60;39.71
11172;BME280;5642;50.830;12.082;2023-05-11T16:27:39;99158.94;;;21.66;39.77
11172;BME280;5642;50.830;12.082;2023-05-11T16:30:07;99158.53;;;21.71;39.82
11172;BME280;5642;50.830;12.082;2023-05-11T16:32:34;99160.31;;;21.81;39.78
11172;BME280;5642;50.830;12.082;2023-05-11T16:35:00;99153.06;;;21.83;39.50
11172;BME280;5642;50.830;12.082;2023-05-11T16:37:26;99163.47;;;21.98;39.75
11172;BME280;5642;50.830;12.082;2023-05-11T16:39:53;99160.44;;;22.02;39.50
11172;BME280;5642;50.830;12.082;2023-05-11T16:42:25;99158.34;;;22.06;39.44
11172;BME280;5642;50.830;12.082;2023-05-11T18:47:26;99239.16;;;19.76;41.87
11172;BME280;5642;50.830;12.082;2023-05-11T18:49:53;99248.13;;;19.75;41.98
11172;BME280;5642;50.830;12.082;2023-05-11T18:52:19;99241.00;;;19.63;41.68
11172;BME280;5642;50.830;12.082;2023-05-11T18:54:46;99241.34;;;19.58;41.81
11172;BME280;5642;50.830;12.082;2023-05-11T18:57:12;99252.81;;;19.59;42.05
11172;BME280;5642;50.830;12.082;2023-05-11T18:59:43;99247.38;;;19.47;42.02
11172;BME280;5642;50.830;12.082;2023-05-11T19:02:09;99256.34;;;19.46;42.16
11172;BME280;5642;50.830;12.082;2023-05-11T19:04:35;99260.13;;;19.42;42.19
11172;BME280;5642;50.830;12.082;2023-05-11T19:07:01;99263.31;;;19.35;42.28
11172;BME280;5642;50.830;12.082;2023-05-11T19:09:29;99265.66;;;19.27;42.24
11172;BME280;5642;50.830;12.082;2023-05-11T19:11:56;99281.72;;;19.25;42.63
11172;BME280;5642;50.830;12.082;2023-05-11T19:14:22;99278.41;;;19.22;42.34
11172;BME280;5642;50.830;12.082;2023-05-11T19:16:49;99277.13;;;19.14;42.47
11172;BME280;5642;50.830;12.082;2023-05-11T19:19:15;99280.19;;;19.08;42.70
11172;BME280;5642;50.830;12.082;2023-05-11T19:21:42;99282.09;;;19.06;42.60
11172;BME280;5642;50.830;12.082;2023-05-11T19:24:10;99280.81;;;18.99;42.68
11172;BME280;5642;50.830;12.082;2023-05-11T19:26:37;99292.28;;;19.00;42.82
11172;BME280;5642;50.830;12.082;2023-05-11T19:29:04;99295.47;;;18.92;42.84
11172;BME280;5642;50.830;12.082;2023-05-11T19:31:30;99294.94;;;18.87;42.83
11172;BME280;5642;50.830;12.082;2023-05-11T19:33:56;99293.53;;;18.82;42.91
11172;BME280;5642;50.830;12.082;2023-05-11T19:36:23;99292.88;;;18.78;42.93
11172;BME280;5642;50.830;12.082;2023-05-11T19:38:49;99296.72;;;18.74;42.95
11172;BME280;5642;50.830;12.082;2023-05-11T19:41:16;99294.25;;;18.71;43.00
11172;BME280;5642;50.830;12.082;2023-05-11T19:43:43;99301.25;;;18.72;43.03
11172;BME280;5642;50.830;12.082;2023-05-11T19:46:10;99295.31;;;18.68;43.14
11172;BME280;5642;50.830;12.082;2023-05-11T19:48:36;99294.97;;;18.60;43.08
11172;BME280;5642;50.830;12.082;2023-05-11T19:51:03;99299.53;;;18.58;43.08
11172;BME280;5642;50.830;12.082;2023-05-11T19:53:29;99298.09;;;18.53;43.17
11172;BME280;5642;50.830;12.082;2023-05-11T19:55:55;99306.34;;;18.48;43.58
11172;BME280;5642;50.830;12.082;2023-05-11T19:58:22;99304.94;;;18.43;43.52
11172;BME280;5642;50.830;12.082;2023-05-11T20:00:48;99303.72;;;18.34;43.34
11172;BME280;5642;50.830;12.082;2023-05-11T20:03:14;99295.63;;;18.23;43.57
11172;BME280;5642;50.830;12.082;2023-05-11T20:05:41;99311.53;;;18.23;43.50
11172;BME280;5642;50.830;12.082;2023-05-11T20:08:08;99286.31;;;18.03;43.61
11172;BME280;5642;50.830;12.082;2023-05-11T20:10:34;99281.59;;;17.94;43.62
11172;BME280;5642;50.830;12.082;2023-05-11T20:13:00;99312.50;;;18.08;43.55
11172;BME280;5642;50.830;12.082;2023-05-11T20:15:32;99307.69;;;18.00;43.71
11172;BME280;5642;50.830;12.082;2023-05-11T20:18:00;99319.16;;;18.00;43.86
11172;BME280;5642;50.830;12.082;2023-05-11T20:20:30;99316.91;;;17.94;43.86
11172;BME280;5642;50.830;12.082;2023-05-11T20:22:57;99317.94;;;17.92;43.79
11172;BME280;5642;50.830;12.082;2023-05-11T20:25:24;99308.09;;;17.80;43.97
11172;BME280;5642;50.830;12.082;2023-05-11T20:27:50;99317.75;;;17.81;43.84
11172;BME280;5642;50.830;12.082;2023-05-11T20:30:16;99321.28;;;17.81;44.08
11172;BME280;5642;50.830;12.082;2023-05-11T20:32:43;99326.66;;;17.80;44.09
11172;BME280;5642;50.830;12.082;2023-05-11T20:35:09;99318.88;;;17.77;44.21
11172;BME280;5642;50.830;12.082;2023-05-11T20:37:35;99318.03;;;17.76;44.02
11172;BME280;5642;50.830;12.082;2023-05-11T20:40:03;99323.63;;;17.72;44.10
11172;BME280;5642;50.830;12.082;2023-05-11T20:42:30;99324.09;;;17.64;43.95
11172;BME280;5642;50.830;12.082;2023-05-11T20:44:56;99329.66;;;17.59;44.16
11172;BME280;5642;50.830;12.082;2023-05-11T21:48:52;99362.13;;;16.58;45.35
11172;BME280;5642;50.830;12.082;2023-05-11T21:51:18;99349.53;;;16.47;45.26
11172;BME280;5642;50.830;12.082;2023-05-11T21:53:44;99363.25;;;16.54;45.27
11172;BME280;5642;50.830;12.082;2023-05-11T21:56:11;99340.31;;;16.38;45.18
11172;BME280;5642;50.830;12.082;2023-05-11T21:58:37;99353.47;;;16.40;45.41
11172;BME280;5642;50.830;12.082;2023-05-11T22:01:04;99373.16;;;16.50;45.39
11172;BME280;5642;50.830;12.082;2023-05-11T22:03:30;99368.91;;;16.48;45.42
11172;BME280;5642;50.830;12.082;2023-05-11T22:06:00;99378.69;;;16.45;45.19
11172;BME280;5642;50.830;12.082;2023-05-11T22:08:27;99367.19;;;16.47;45.43
11172;BME280;5642;50.830;12.082;2023-05-11T22:10:54;99377.84;;;16.45;45.13
11172;BME280;5642;50.830;12.082;2023-05-11T22:13:22;99383.91;;;16.47;45.44
11172;BME280;5642;50.830;12.082;2023-05-11T22:15:49;99392.00;;;16.44;45.34
11172;BME280;5642;50.830;12.082;2023-05-11T22:18:16;99394.91;;;16.39;45.23
11172;BME280;5642;50.830;12.082;2023-05-11T22:20:42;99396.50;;;16.42;45.39
11172;BME280;5642;50.830;12.082;2023-05-11T22:23:09;99351.31;;;16.15;45.29
11172;BME280;5642;50.830;12.082;2023-05-11T22:25:35;99373.66;;;16.25;45.44
11172;BME280;5642;50.830;12.082;2023-05-11T22:28:02;99396.94;;;16.34;45.47
11172;BME280;5642;50.830;12.082;2023-05-11T22:30:28;99387.75;;;16.26;45.54